PWSweather.com
Personal Weather Stations
Station Observations
IONTARIO88
Lincoln, ON L0R

Lincoln, ON L0R

Lat: 43.1763563, Lon: -79.4719525

Elevation: 297

Station Type: Davis Vantage Pro 2 Plus

http://www.beamsvillewx.ca

High Low Average
Temperature 34.3°F1.3°C 26.8°F-2.9°C 30.0°F-1.1°C
Dew Point 32.8°F0.4°C 24.0°F-4.4°C 27.4°F-2.6°C
Winds 10.0 mph 16.1 kmh Calm Calm 4.0 mph SE6.4 kmh SE
Wind Gusts 20.0 mph32.2 kmh -- 9.0 mph14.5 kmh
Humidity 94% 81% 90%
Pressure 30.15 in1021.0 mb 29.67 in1004.7 mb -
Precipitation 0.26 in6.6 mm - -
Hour Temp Dew Point Humidity Winds Wind Gusts Pressure Precip Precip Rate Daily Precip Total
12:00 AM 28.4°F-2.0°C 26.1°F-3.3°C 91% 4.0 mph NE6.4 kmh NE 10.0 mph16.1 kmh 30.15 in1021.0 mb 0.00 in0.0 mm 0.00 in0.0 mm 0.27 in6.9 mm
12:15 AM 28.2°F-2.1°C 25.9°F-3.4°C 91% 5.0 mph NE8.0 kmh NE 9.0 mph14.5 kmh 30.14 in1020.7 mb 0.00 in0.0 mm 0.00 in0.0 mm 0.27 in6.9 mm
12:30 AM 28.2°F-2.1°C 25.9°F-3.4°C 91% 5.0 mph NE8.0 kmh NE 8.0 mph12.9 kmh 30.14 in1020.7 mb 0.00 in0.0 mm 0.00 in0.0 mm 0.27 in6.9 mm
12:45 AM 28.0°F-2.2°C 26.0°F-3.3°C 92% 5.0 mph NE8.0 kmh NE 10.0 mph16.1 kmh 30.15 in1021.0 mb 0.00 in0.0 mm 0.00 in0.0 mm 0.27 in6.9 mm
01:00 AM 28.2°F-2.1°C 26.2°F-3.2°C 92% 6.0 mph NE9.7 kmh NE 11.0 mph17.7 kmh 30.15 in1021.0 mb 0.00 in0.0 mm 0.00 in0.0 mm 0.00 in0.0 mm
01:15 AM 28.2°F-2.1°C 25.9°F-3.4°C 91% 5.0 mph NE8.0 kmh NE 10.0 mph16.1 kmh 30.15 in1021.0 mb 0.00 in0.0 mm 0.00 in0.0 mm 0.00 in0.0 mm
01:30 AM 28.0°F-2.2°C 25.8°F-3.4°C 91% 4.0 mph NE6.4 kmh NE 8.0 mph12.9 kmh 30.15 in1021.0 mb 0.00 in0.0 mm 0.00 in0.0 mm 0.00 in0.0 mm
01:45 AM 28.2°F-2.1°C 25.9°F-3.4°C 91% 5.0 mph NE8.0 kmh NE 10.0 mph16.1 kmh 30.15 in1021.0 mb 0.00 in0.0 mm 0.00 in0.0 mm 0.00 in0.0 mm
02:00 AM 28.2°F-2.1°C 25.9°F-3.4°C 91% 5.0 mph NE8.0 kmh NE 10.0 mph16.1 kmh 30.14 in1020.7 mb 0.00 in0.0 mm 0.00 in0.0 mm 0.00 in0.0 mm
02:15 AM 28.2°F-2.1°C 25.7°F-3.5°C 90% 5.0 mph NE8.0 kmh NE 11.0 mph17.7 kmh 30.13 in1020.3 mb 0.00 in0.0 mm 0.00 in0.0 mm 0.00 in0.0 mm
02:30 AM 28.4°F-2.0°C 25.8°F-3.4°C 90% 5.0 mph NE8.0 kmh NE 11.0 mph17.7 kmh 30.13 in1020.3 mb 0.00 in0.0 mm 0.00 in0.0 mm 0.00 in0.0 mm
02:45 AM 28.2°F-2.1°C 25.4°F-3.7°C 89% 6.0 mph NE9.7 kmh NE 12.0 mph19.3 kmh 30.14 in1020.7 mb 0.00 in0.0 mm 0.00 in0.0 mm 0.00 in0.0 mm
03:00 AM 28.2°F-2.1°C 25.4°F-3.7°C 89% 5.0 mph NE8.0 kmh NE 11.0 mph17.7 kmh 30.13 in1020.3 mb 0.00 in0.0 mm 0.00 in0.0 mm 0.00 in0.0 mm
03:15 AM 28.2°F-2.1°C 25.4°F-3.7°C 89% 5.0 mph NE8.0 kmh NE 9.0 mph14.5 kmh 30.13 in1020.3 mb 0.00 in0.0 mm 0.00 in0.0 mm 0.00 in0.0 mm
03:30 AM 28.2°F-2.1°C 25.4°F-3.7°C 89% 6.0 mph NE9.7 kmh NE 11.0 mph17.7 kmh 30.13 in1020.3 mb 0.00 in0.0 mm 0.00 in0.0 mm 0.00 in0.0 mm
03:45 AM 28.6°F-1.9°C 26.0°F-3.3°C 90% 6.0 mph NE9.7 kmh NE 11.0 mph17.7 kmh 30.11 in1019.6 mb 0.00 in0.0 mm 0.00 in0.0 mm 0.00 in0.0 mm
04:00 AM 28.8°F-1.8°C 26.2°F-3.2°C 90% 6.0 mph ENE9.7 kmh ENE 12.0 mph19.3 kmh 30.11 in1019.6 mb 0.00 in0.0 mm 0.00 in0.0 mm 0.00 in0.0 mm
04:15 AM 28.2°F-2.1°C 25.7°F-3.5°C 90% 2.0 mph E3.2 kmh E 8.0 mph12.9 kmh 30.10 in1019.3 mb 0.00 in0.0 mm 0.00 in0.0 mm 0.00 in0.0 mm
04:30 AM 28.2°F-2.1°C 25.7°F-3.5°C 90% 2.0 mph E3.2 kmh E 8.0 mph12.9 kmh 30.09 in1019.0 mb 0.00 in0.0 mm 0.00 in0.0 mm 0.00 in0.0 mm
04:45 AM 28.0°F-2.2°C 25.5°F-3.6°C 90% 4.0 mph E6.4 kmh E 7.0 mph11.3 kmh 30.08 in1018.6 mb 0.00 in0.0 mm 0.00 in0.0 mm 0.00 in0.0 mm
05:00 AM 27.9°F-2.3°C 25.3°F-3.7°C 90% 3.0 mph E4.8 kmh E 8.0 mph12.9 kmh 30.07 in1018.3 mb 0.00 in0.0 mm 0.00 in0.0 mm 0.00 in0.0 mm
05:15 AM 27.9°F-2.3°C 25.3°F-3.7°C 90% 2.0 mph E3.2 kmh E 7.0 mph11.3 kmh 30.07 in1018.3 mb 0.00 in0.0 mm 0.00 in0.0 mm 0.00 in0.0 mm
05:30 AM 27.9°F-2.3°C 25.3°F-3.7°C 90% 3.0 mph E4.8 kmh E 8.0 mph12.9 kmh 30.07 in1018.3 mb 0.00 in0.0 mm 0.00 in0.0 mm 0.00 in0.0 mm
05:45 AM 27.9°F-2.3°C 25.3°F-3.7°C 90% 4.0 mph ESE6.4 kmh ESE 9.0 mph14.5 kmh 30.05 in1017.6 mb 0.00 in0.0 mm 0.00 in0.0 mm 0.00 in0.0 mm
06:00 AM 27.7°F-2.4°C 25.1°F-3.8°C 90% 4.0 mph E6.4 kmh E 8.0 mph12.9 kmh 30.05 in1017.6 mb 0.00 in0.0 mm 0.00 in0.0 mm 0.00 in0.0 mm
06:15 AM 27.7°F-2.4°C 25.1°F-3.8°C 90% 3.0 mph E4.8 kmh E 7.0 mph11.3 kmh 30.04 in1017.3 mb 0.00 in0.0 mm 0.00 in0.0 mm 0.00 in0.0 mm
06:30 AM 27.5°F-2.5°C 25.0°F-3.9°C 90% 2.0 mph E3.2 kmh E 8.0 mph12.9 kmh 30.04 in1017.3 mb 0.00 in0.0 mm 0.00 in0.0 mm 0.00 in0.0 mm
06:45 AM 27.3°F-2.6°C 24.8°F-4.0°C 90% 4.0 mph E6.4 kmh E 10.0 mph16.1 kmh 30.04 in1017.3 mb 0.00 in0.0 mm 0.00 in0.0 mm 0.00 in0.0 mm
07:15 AM 27.1°F-2.7°C 24.3°F-4.3°C 89% 3.0 mph E4.8 kmh E 7.0 mph11.3 kmh 30.02 in1016.6 mb 0.00 in0.0 mm 0.00 in0.0 mm 0.00 in0.0 mm
07:30 AM 27.0°F-2.8°C 24.2°F-4.3°C 89% 3.0 mph E4.8 kmh E 8.0 mph12.9 kmh 30.00 in1015.9 mb 0.00 in0.0 mm 0.00 in0.0 mm 0.00 in0.0 mm
07:45 AM 27.0°F-2.8°C 24.2°F-4.3°C 89% 3.0 mph E4.8 kmh E 8.0 mph12.9 kmh 30.00 in1015.9 mb 0.00 in0.0 mm 0.00 in0.0 mm 0.00 in0.0 mm
08:00 AM 26.8°F-2.9°C 24.0°F-4.4°C 89% 4.0 mph ENE6.4 kmh ENE 8.0 mph12.9 kmh 29.99 in1015.6 mb 0.00 in0.0 mm 0.00 in0.0 mm 0.00 in0.0 mm
08:15 AM 26.8°F-2.9°C 24.0°F-4.4°C 89% 3.0 mph ENE4.8 kmh ENE 8.0 mph12.9 kmh 29.99 in1015.6 mb 0.00 in0.0 mm 0.00 in0.0 mm 0.00 in0.0 mm
08:30 AM 26.8°F-2.9°C 24.0°F-4.4°C 89% 3.0 mph ENE4.8 kmh ENE 10.0 mph16.1 kmh 29.99 in1015.6 mb 0.00 in0.0 mm 0.00 in0.0 mm 0.00 in0.0 mm
08:45 AM 26.8°F-2.9°C 24.0°F-4.4°C 89% 3.0 mph NE4.8 kmh NE 7.0 mph11.3 kmh 29.98 in1015.2 mb 0.00 in0.0 mm 0.00 in0.0 mm 0.00 in0.0 mm
09:00 AM 26.8°F-2.9°C 24.0°F-4.4°C 89% 4.0 mph E6.4 kmh E 7.0 mph11.3 kmh 29.96 in1014.6 mb 0.00 in0.0 mm 0.00 in0.0 mm 0.00 in0.0 mm
09:15 AM 27.0°F-2.8°C 24.2°F-4.3°C 89% 3.0 mph E4.8 kmh E 7.0 mph11.3 kmh 29.96 in1014.6 mb 0.00 in0.0 mm 0.00 in0.0 mm 0.00 in0.0 mm
09:30 AM 27.0°F-2.8°C 24.2°F-4.3°C 89% 3.0 mph ENE4.8 kmh ENE 8.0 mph12.9 kmh 29.96 in1014.6 mb 0.00 in0.0 mm 0.00 in0.0 mm 0.00 in0.0 mm
09:45 AM 27.1°F-2.7°C 24.6°F-4.1°C 90% 3.0 mph ENE4.8 kmh ENE 8.0 mph12.9 kmh 29.94 in1013.9 mb 0.00 in0.0 mm 0.00 in0.0 mm 0.00 in0.0 mm
10:00 AM 27.3°F-2.6°C 24.8°F-4.0°C 90% 5.0 mph E8.0 kmh E 8.0 mph12.9 kmh 29.93 in1013.5 mb 0.00 in0.0 mm 0.00 in0.0 mm 0.00 in0.0 mm
10:15 AM 27.3°F-2.6°C 24.8°F-4.0°C 90% 5.0 mph E8.0 kmh E 9.0 mph14.5 kmh 29.92 in1013.2 mb 0.00 in0.0 mm 0.00 in0.0 mm 0.00 in0.0 mm
10:30 AM 27.7°F-2.4°C 25.1°F-3.8°C 90% 2.0 mph ENE3.2 kmh ENE 8.0 mph12.9 kmh 29.91 in1012.9 mb 0.00 in0.0 mm 0.00 in0.0 mm 0.00 in0.0 mm
10:45 AM 27.9°F-2.3°C 25.0°F-3.9°C 89% 4.0 mph ENE6.4 kmh ENE 8.0 mph12.9 kmh 29.89 in1012.2 mb 0.00 in0.0 mm 0.00 in0.0 mm 0.00 in0.0 mm
11:00 AM 28.0°F-2.2°C 25.5°F-3.6°C 90% 3.0 mph ENE4.8 kmh ENE 8.0 mph12.9 kmh 29.88 in1011.9 mb 0.00 in0.0 mm 0.00 in0.0 mm 0.00 in0.0 mm
11:15 AM 28.2°F-2.1°C 25.4°F-3.7°C 89% 4.0 mph E6.4 kmh E 8.0 mph12.9 kmh 29.85 in1010.8 mb 0.00 in0.0 mm 0.00 in0.0 mm 0.00 in0.0 mm
11:30 AM 28.6°F-1.9°C 25.8°F-3.4°C 89% 3.0 mph ENE4.8 kmh ENE 8.0 mph12.9 kmh 29.84 in1010.5 mb 0.00 in0.0 mm 0.00 in0.0 mm 0.00 in0.0 mm
11:45 AM 28.9°F-1.7°C 26.1°F-3.3°C 89% 2.0 mph ENE3.2 kmh ENE 7.0 mph11.3 kmh 29.84 in1010.5 mb 0.00 in0.0 mm 0.00 in0.0 mm 0.00 in0.0 mm
12:00 PM 29.1°F-1.6°C 26.3°F-3.2°C 89% 2.0 mph ENE3.2 kmh ENE 5.0 mph8.0 kmh 29.83 in1010.2 mb 0.00 in0.0 mm 0.00 in0.0 mm 0.00 in0.0 mm
12:15 PM 29.5°F-1.4°C 26.6°F-3.0°C 89% 3.0 mph NE4.8 kmh NE 8.0 mph12.9 kmh 29.82 in1009.8 mb 0.00 in0.0 mm 0.00 in0.0 mm 0.00 in0.0 mm
12:30 PM 29.7°F-1.3°C 26.8°F-2.9°C 89% 4.0 mph NE6.4 kmh NE 8.0 mph12.9 kmh 29.81 in1009.5 mb 0.00 in0.0 mm 0.00 in0.0 mm 0.00 in0.0 mm
12:45 PM 30.0°F-1.1°C 27.7°F-2.4°C 91% 3.0 mph NE4.8 kmh NE 6.0 mph9.7 kmh 29.79 in1008.8 mb 0.00 in0.0 mm 0.00 in0.0 mm 0.00 in0.0 mm
01:00 PM 30.0°F-1.1°C 28.0°F-2.2°C 92% 3.0 mph NE4.8 kmh NE 6.0 mph9.7 kmh 29.77 in1008.1 mb 0.00 in0.0 mm 0.00 in0.0 mm 0.00 in0.0 mm
01:15 PM 30.2°F-1.0°C 28.2°F-2.1°C 92% 3.0 mph NE4.8 kmh NE 8.0 mph12.9 kmh 29.75 in1007.5 mb 0.00 in0.0 mm 0.00 in0.0 mm 0.00 in0.0 mm
01:30 PM 30.2°F-1.0°C 28.2°F-2.1°C 92% 3.0 mph NE4.8 kmh NE 8.0 mph12.9 kmh 29.72 in1006.4 mb 0.00 in0.0 mm 0.00 in0.0 mm 0.00 in0.0 mm
01:45 PM 30.6°F-0.8°C 28.5°F-1.9°C 92% 2.0 mph ENE3.2 kmh ENE 5.0 mph8.0 kmh 29.71 in1006.1 mb 0.01 in0.3 mm 0.04 in1.0 mm 0.01 in0.3 mm
02:00 PM 30.6°F-0.8°C 28.8°F-1.8°C 93% 2.0 mph ENE3.2 kmh ENE 4.0 mph6.4 kmh 29.70 in1005.8 mb 0.01 in0.3 mm 0.00 in0.0 mm 0.01 in0.3 mm
02:15 PM 30.6°F-0.8°C 28.8°F-1.8°C 93% 2.0 mph ENE3.2 kmh ENE 4.0 mph6.4 kmh 29.69 in1005.4 mb 0.01 in0.3 mm 0.00 in0.0 mm 0.01 in0.3 mm
02:30 PM 31.1°F-0.5°C 29.3°F-1.5°C 93% 2.0 mph N3.2 kmh N 11.0 mph17.7 kmh 29.73 in1006.8 mb 0.01 in0.3 mm 0.00 in0.0 mm 0.01 in0.3 mm
02:45 PM 31.5°F-0.3°C 29.7°F-1.3°C 93% 2.0 mph N3.2 kmh N 6.0 mph9.7 kmh 29.72 in1006.4 mb 0.02 in0.5 mm 0.04 in1.0 mm 0.03 in0.8 mm
03:00 PM 31.8°F-0.1°C 30.0°F-1.1°C 93% Calm Calm -- 29.70 in1005.8 mb 0.05 in1.3 mm 0.04 in1.0 mm 0.06 in1.5 mm
03:15 PM 31.8°F-0.1°C 30.0°F-1.1°C 93% Calm Calm -- 29.69 in1005.4 mb 0.06 in1.5 mm 0.04 in1.0 mm 0.07 in1.8 mm
03:30 PM 31.8°F-0.1°C 30.0°F-1.1°C 93% Calm Calm -- 29.68 in1005.1 mb 0.08 in2.0 mm 0.08 in2.0 mm 0.09 in2.3 mm
03:45 PM 32.4°F0.2°C 30.6°F-0.8°C 93% Calm Calm -- 29.68 in1005.1 mb 0.06 in1.5 mm 0.00 in0.0 mm 0.09 in2.3 mm
04:00 PM 32.4°F0.2°C 30.6°F-0.8°C 93% Calm Calm -- 29.67 in1004.7 mb 0.04 in1.0 mm 0.00 in0.0 mm 0.09 in2.3 mm
04:15 PM 33.1°F0.6°C 31.3°F-0.4°C 93% Calm Calm -- 29.67 in1004.7 mb 0.02 in0.5 mm 0.00 in0.0 mm 0.09 in2.3 mm
04:30 PM 33.1°F0.6°C 31.3°F-0.4°C 93% Calm Calm -- 29.68 in1005.1 mb 0.02 in0.5 mm 0.00 in0.0 mm 0.11 in2.8 mm
04:45 PM 33.3°F0.7°C 31.5°F-0.3°C 93% Calm Calm -- 29.68 in1005.1 mb 0.04 in1.0 mm 0.08 in2.0 mm 0.13 in3.3 mm
05:00 PM 33.4°F0.8°C 31.6°F-0.2°C 93% Calm Calm -- 29.68 in1005.1 mb 0.08 in2.0 mm 0.05 in1.3 mm 0.17 in4.3 mm
05:15 PM 33.6°F0.9°C 31.8°F-0.1°C 93% 2.0 mph N3.2 kmh N 5.0 mph8.0 kmh 29.69 in1005.4 mb 0.09 in2.3 mm 0.04 in1.0 mm 0.19 in4.8 mm
05:30 PM 34.0°F1.1°C 32.2°F0.1°C 93% 1.0 mph N1.6 kmh N 5.0 mph8.0 kmh 29.71 in1006.1 mb 0.09 in2.3 mm 0.00 in0.0 mm 0.20 in5.1 mm
05:45 PM 33.8°F1.0°C 32.0°F0.0°C 93% 2.0 mph NW3.2 kmh NW 7.0 mph11.3 kmh 29.72 in1006.4 mb 0.07 in1.8 mm 0.00 in0.0 mm 0.20 in5.1 mm
06:00 PM 33.4°F0.8°C 31.6°F-0.2°C 93% 3.0 mph WNW4.8 kmh WNW 7.0 mph11.3 kmh 29.74 in1007.1 mb 0.02 in0.5 mm 0.00 in0.0 mm 0.20 in5.1 mm
06:15 PM 33.3°F0.7°C 31.5°F-0.3°C 93% 3.0 mph WNW4.8 kmh WNW 6.0 mph9.7 kmh 29.75 in1007.5 mb 0.02 in0.5 mm 0.00 in0.0 mm 0.21 in5.3 mm
06:30 PM 33.1°F0.6°C 31.3°F-0.4°C 93% 2.0 mph WNW3.2 kmh WNW 5.0 mph8.0 kmh 29.77 in1008.1 mb 0.01 in0.3 mm 0.00 in0.0 mm 0.21 in5.3 mm
06:45 PM 33.1°F0.6°C 31.3°F-0.4°C 93% 2.0 mph WNW3.2 kmh WNW 5.0 mph8.0 kmh 29.79 in1008.8 mb 0.02 in0.5 mm 0.04 in1.0 mm 0.23 in5.8 mm
07:00 PM 33.1°F0.6°C 31.3°F-0.4°C 93% Calm Calm -- 29.80 in1009.1 mb 0.03 in0.8 mm 0.01 in0.3 mm 0.24 in6.1 mm
07:15 PM 34.2°F1.2°C 32.6°F0.3°C 94% 3.0 mph WSW4.8 kmh WSW 9.0 mph14.5 kmh 29.80 in1009.1 mb 0.03 in0.8 mm 0.00 in0.0 mm 0.24 in6.1 mm
07:30 PM 34.3°F1.3°C 32.8°F0.4°C 94% 5.0 mph W8.0 kmh W 12.0 mph19.3 kmh 29.83 in1010.2 mb 0.03 in0.8 mm 0.00 in0.0 mm 0.24 in6.1 mm
07:45 PM 34.3°F1.3°C 32.5°F0.3°C 93% 5.0 mph WSW8.0 kmh WSW 12.0 mph19.3 kmh 29.86 in1011.2 mb 0.02 in0.5 mm 0.00 in0.0 mm 0.25 in6.4 mm
08:00 PM 34.2°F1.2°C 32.1°F0.1°C 92% 7.0 mph W11.3 kmh W 18.0 mph29.0 kmh 29.87 in1011.5 mb 0.02 in0.5 mm 0.00 in0.0 mm 0.25 in6.4 mm
08:15 PM 33.8°F1.0°C 31.5°F-0.3°C 91% 8.0 mph W12.9 kmh W 17.0 mph27.4 kmh 29.88 in1011.9 mb 0.01 in0.3 mm 0.00 in0.0 mm 0.25 in6.4 mm
08:30 PM 33.6°F0.9°C 31.0°F-0.6°C 90% 9.0 mph W14.5 kmh W 18.0 mph29.0 kmh 29.89 in1012.2 mb 0.02 in0.5 mm 0.04 in1.0 mm 0.26 in6.6 mm
08:45 PM 33.3°F0.7°C 30.4°F-0.9°C 89% 10.0 mph W16.1 kmh W 19.0 mph30.6 kmh 29.92 in1013.2 mb 0.01 in0.3 mm 0.00 in0.0 mm 0.26 in6.6 mm
09:00 PM 32.7°F0.4°C 29.6°F-1.3°C 88% 10.0 mph W16.1 kmh W 20.0 mph32.2 kmh 29.93 in1013.5 mb 0.01 in0.3 mm 0.00 in0.0 mm 0.26 in6.6 mm
09:15 PM 32.7°F0.4°C 29.6°F-1.3°C 88% 8.0 mph W12.9 kmh W 14.0 mph22.5 kmh 29.95 in1014.2 mb 0.01 in0.3 mm 0.00 in0.0 mm 0.26 in6.6 mm
09:30 PM 32.4°F0.2°C 28.9°F-1.7°C 87% 6.0 mph WNW9.7 kmh WNW 13.0 mph20.9 kmh 29.95 in1014.2 mb 0.00 in0.0 mm 0.00 in0.0 mm 0.26 in6.6 mm
09:45 PM 31.8°F-0.1°C 27.8°F-2.3°C 85% 7.0 mph W11.3 kmh W 16.0 mph25.7 kmh 29.97 in1014.9 mb 0.00 in0.0 mm 0.00 in0.0 mm 0.26 in6.6 mm
10:00 PM 31.5°F-0.3°C 27.5°F-2.5°C 85% 6.0 mph W9.7 kmh W 11.0 mph17.7 kmh 29.98 in1015.2 mb 0.00 in0.0 mm 0.00 in0.0 mm 0.26 in6.6 mm
10:15 PM 31.5°F-0.3°C 27.5°F-2.5°C 85% 5.0 mph W8.0 kmh W 12.0 mph19.3 kmh 30.00 in1015.9 mb 0.00 in0.0 mm 0.00 in0.0 mm 0.26 in6.6 mm
10:30 PM 31.1°F-0.5°C 27.1°F-2.7°C 85% 4.0 mph WNW6.4 kmh WNW 11.0 mph17.7 kmh 30.02 in1016.6 mb 0.00 in0.0 mm 0.00 in0.0 mm 0.26 in6.6 mm
10:45 PM 30.7°F-0.7°C 26.5°F-3.1°C 84% 6.0 mph W9.7 kmh W 13.0 mph20.9 kmh 30.04 in1017.3 mb 0.00 in0.0 mm 0.00 in0.0 mm 0.26 in6.6 mm
11:00 PM 30.6°F-0.8°C 26.3°F-3.2°C 84% 8.0 mph W12.9 kmh W 15.0 mph24.1 kmh 30.05 in1017.6 mb 0.00 in0.0 mm 0.00 in0.0 mm 0.26 in6.6 mm
11:15 PM 30.6°F-0.8°C 26.3°F-3.2°C 84% 7.0 mph W11.3 kmh W 13.0 mph20.9 kmh 30.06 in1017.9 mb 0.00 in0.0 mm 0.00 in0.0 mm 0.26 in6.6 mm
11:30 PM 30.4°F-0.9°C 26.1°F-3.3°C 84% 7.0 mph W11.3 kmh W 13.0 mph20.9 kmh 30.07 in1018.3 mb 0.00 in0.0 mm 0.00 in0.0 mm 0.26 in6.6 mm
11:45 PM 30.2°F-1.0°C 25.7°F-3.5°C 83% 7.0 mph W11.3 kmh W 13.0 mph20.9 kmh 30.09 in1019.0 mb 0.00 in0.0 mm 0.00 in0.0 mm 0.26 in6.6 mm